Time;durP1;ratioP1;P1;durP2;ratioP2;P2;SDS_P1;SDS_P2;PMS_P1;PMS_P2;Temp;Humidity;BMP_temperature;BMP_pressure;BME280_temperature;BME280_humidity;BME280_pressure;Samples;Min_cycle;Max_cycle;Signal;HPM_P1;HPM_P2
2022/09/02 00:01:27;;;;;;;43.93;41.63;;;13.20;99.90;;;;;;5057155;28;20219;-85
2022/09/02 00:03:58;;;;;;;53.87;51.07;;;13.10;99.90;;;;;;5058492;28;20724;-83
2022/09/02 00:06:24;;;;;;;29.07;27.23;;;13.00;99.90;;;;;;5057091;28;20186;-83
2022/09/02 00:08:53;;;;;;;28.00;26.33;;;13.00;99.90;;;;;;5055135;28;20275;-83
2022/09/02 00:11:22;;;;;;;32.03;30.20;;;13.00;99.90;;;;;;5048946;28;20266;-83
2022/09/02 00:13:49;;;;;;;25.80;24.27;;;13.00;99.90;;;;;;5036722;28;20183;-84
2022/09/02 00:16:16;;;;;;;17.73;16.53;;;13.00;99.90;;;;;;5035833;28;20218;-83
2022/09/02 00:18:43;;;;;;;15.20;14.30;;;13.00;99.90;;;;;;5035891;28;20195;-84
2022/09/02 00:21:12;;;;;;;26.63;25.13;;;13.00;99.90;;;;;;5037992;28;20214;-83
2022/09/02 00:23:39;;;;;;;30.13;28.43;;;13.00;99.90;;;;;;5036995;28;20258;-85
2022/09/02 00:26:16;;;;;;;26.00;24.40;;;12.90;99.90;;;;;;5035561;28;20182;-83
2022/09/02 00:28:42;;;;;;;24.77;23.33;;;12.90;99.90;;;;;;5034547;28;20297;-84
2022/09/02 00:31:08;;;;;;;23.47;22.17;;;12.90;99.90;;;;;;5053149;28;20178;-86
2022/09/02 00:33:34;;;;;;;17.30;16.20;;;12.90;99.90;;;;;;5064864;28;20193;-86
2022/09/02 00:36:02;;;;;;;24.63;22.90;;;13.00;99.90;;;;;;5060580;28;20183;-85
2022/09/02 00:38:32;;;;;;;19.73;18.60;;;12.90;99.90;;;;;;5059362;28;20205;-84
2022/09/02 00:40:58;;;;;;;17.57;16.33;;;12.80;99.90;;;;;;5055656;28;20205;-83
2022/09/02 00:43:49;;;;;;;26.40;24.60;;;12.80;99.90;;;;;;5036721;28;20175;-84
2022/09/02 00:46:17;;;;;;;21.70;20.27;;;12.70;99.90;;;;;;5057728;28;20218;-84
2022/09/02 00:49:11;;;;;;;21.70;20.40;;;12.60;99.90;;;;;;5057503;28;20263;-85
2022/09/02 00:51:51;;;;;;;17.10;16.10;;;12.50;99.90;;;;;;5053054;28;20183;-84
2022/09/02 00:54:21;;;;;;;22.17;20.80;;;12.50;99.90;;;;;;5054874;28;20167;-84
2022/09/02 00:56:49;;;;;;;23.10;21.87;;;12.40;99.90;;;;;;5045467;28;20281;-85
2022/09/02 00:59:37;;;;;;;28.57;27.07;;;12.40;99.90;;;;;;5037812;28;20186;-84
2022/09/02 01:02:03;;;;;;;26.53;24.83;;;12.40;99.90;;;;;;5049604;28;20185;-84
2022/09/02 01:04:29;;;;;;;27.67;26.00;;;12.40;99.90;;;;;;5056333;28;20171;-84
2022/09/02 01:06:55;;;;;;;27.57;25.50;;;12.40;99.90;;;;;;5055812;28;20178;-85
2022/09/02 01:09:22;;;;;;;23.37;21.77;;;12.40;99.90;;;;;;5056165;28;20182;-84
2022/09/02 01:11:52;;;;;;;25.60;24.00;;;12.40;99.90;;;;;;5053395;28;20179;-85
2022/09/02 01:14:18;;;;;;;26.80;25.23;;;12.30;99.90;;;;;;5044091;28;20206;-85
2022/09/02 01:16:49;;;;;;;23.17;21.80;;;12.40;99.90;;;;;;5036768;28;20191;-85
2022/09/02 01:19:22;;;;;;;17.47;16.37;;;12.30;99.90;;;;;;5036123;28;20187;-84
2022/09/02 01:21:53;;;;;;;16.63;15.67;;;12.40;99.90;;;;;;5037253;28;20210;-85
2022/09/02 01:24:21;;;;;;;19.37;18.17;;;12.30;99.90;;;;;;5036322;28;20186;-84
2022/09/02 01:26:50;;;;;;;17.93;16.83;;;12.30;99.90;;;;;;5034074;28;20175;-85
2022/09/02 01:29:16;;;;;;;13.27;12.47;;;12.20;99.90;;;;;;5031503;28;20199;-84
2022/09/02 01:31:45;;;;;;;12.07;11.17;;;12.20;99.90;;;;;;5035040;28;20190;-83
2022/09/02 01:34:11;;;;;;;10.97;10.17;;;12.20;99.90;;;;;;5048759;28;20178;-85
2022/09/02 01:36:39;;;;;;;12.27;11.33;;;12.20;99.90;;;;;;5055660;28;20228;-81
2022/09/02 01:39:06;;;;;;;11.70;11.00;;;12.20;99.90;;;;;;5053777;28;20690;-81
2022/09/02 01:41:32;;;;;;;11.73;11.03;;;12.20;99.90;;;;;;5053742;28;20298;-83
2022/09/02 01:43:58;;;;;;;11.73;11.03;;;12.10;99.90;;;;;;5053936;28;20670;-82
2022/09/02 01:46:24;;;;;;;11.17;10.03;;;12.10;99.90;;;;;;5056024;28;20181;-83
2022/09/02 01:48:50;;;;;;;11.30;10.20;;;12.10;99.90;;;;;;5054092;28;20206;-82
2022/09/02 01:51:18;;;;;;;12.90;12.00;;;12.00;99.90;;;;;;5052777;28;20262;-83
2022/09/02 01:53:46;;;;;;;11.93;10.90;;;12.00;99.90;;;;;;5034917;28;20217;-83
2022/09/02 01:56:12;;;;;;;12.47;11.77;;;12.00;99.90;;;;;;5035427;28;20233;-82
2022/09/02 01:58:38;;;;;;;12.10;11.20;;;12.00;99.90;;;;;;5033872;28;20313;-83
2022/09/02 02:01:04;;;;;;;13.97;12.97;;;12.00;99.90;;;;;;5043803;28;20244;-82
2022/09/02 02:03:30;;;;;;;12.30;11.50;;;12.00;99.90;;;;;;5062782;28;20198;-82
2022/09/02 02:05:56;;;;;;;13.53;12.73;;;12.00;99.90;;;;;;5048972;28;20213;-84
2022/09/02 02:08:23;;;;;;;13.00;12.20;;;11.90;99.90;;;;;;5038118;28;20253;-83
2022/09/02 02:10:48;;;;;;;12.63;11.93;;;11.90;99.90;;;;;;5038690;28;20186;-84
2022/09/02 02:13:15;;;;;;;12.33;11.53;;;11.80;99.90;;;;;;5055389;28;20285;-82
2022/09/02 02:15:42;;;;;;;16.40;15.20;;;11.80;99.90;;;;;;5055972;28;20178;-82
2022/09/02 02:18:13;;;;;;;20.43;19.03;;;11.80;99.90;;;;;;5055979;28;20233;-82
2022/09/02 02:20:39;;;;;;;14.80;13.83;;;11.80;99.90;;;;;;5058682;28;20249;-84
2022/09/02 02:23:06;;;;;;;15.03;14.13;;;11.70;99.90;;;;;;5037215;28;20190;-82
2022/09/02 02:25:32;;;;;;;16.90;15.70;;;11.70;99.90;;;;;;5036215;28;20269;-83
2022/09/02 02:27:58;;;;;;;15.97;15.00;;;11.80;99.90;;;;;;5035642;28;20222;-83
2022/09/02 02:30:24;;;;;;;14.33;13.23;;;11.80;99.90;;;;;;5040606;28;20554;-86
2022/09/02 02:32:49;;;;;;;12.40;11.50;;;11.80;99.90;;;;;;5038862;28;20299;-84
2022/09/02 02:35:18;;;;;;;12.70;11.90;;;11.70;99.90;;;;;;5040443;28;20558;-83
2022/09/02 02:37:47;;;;;;;13.20;12.40;;;11.70;99.90;;;;;;5044311;28;20274;-85
2022/09/02 02:40:15;;;;;;;12.73;11.93;;;11.70;99.90;;;;;;5054374;28;20221;-85
2022/09/02 02:42:41;;;;;;;13.03;12.23;;;11.60;99.90;;;;;;5054063;28;20178;-84
2022/09/02 02:45:08;;;;;;;19.33;18.03;;;11.50;99.90;;;;;;5059377;28;20204;-84
2022/09/02 02:47:37;;;;;;;15.63;14.73;;;11.50;99.90;;;;;;5059835;28;20197;-84
2022/09/02 02:50:03;;;;;;;11.70;10.70;;;11.50;99.90;;;;;;5076131;28;20231;-86
2022/09/02 02:52:29;;;;;;;14.23;13.40;;;11.50;99.90;;;;;;5066911;28;20162;-84
2022/09/02 02:54:55;;;;;;;14.97;13.90;;;11.40;99.90;;;;;;5049141;28;20199;-86
2022/09/02 02:57:21;;;;;;;16.33;15.43;;;11.40;99.90;;;;;;5057661;28;20206;-85
2022/09/02 02:59:47;;;;;;;14.60;13.60;;;11.40;99.90;;;;;;5058637;28;20543;-83
2022/09/02 03:02:13;;;;;;;13.37;12.17;;;11.40;99.90;;;;;;5050814;28;20369;-83
2022/09/02 03:04:38;;;;;;;41.67;39.20;;;11.40;99.90;;;;;;5043863;28;20170;-83
2022/09/02 03:07:05;;;;;;;12.90;12.00;;;11.50;99.90;;;;;;5056832;28;20750;-82
2022/09/02 03:09:32;;;;;;;13.50;12.73;;;11.40;99.90;;;;;;5058418;28;20189;-82
2022/09/02 03:11:58;;;;;;;11.53;10.73;;;11.40;99.90;;;;;;5048871;28;20187;-81
2022/09/02 03:14:23;;;;;;;17.47;16.47;;;11.40;99.90;;;;;;5058218;28;20251;-83
2022/09/02 03:16:51;;;;;;;12.97;12.27;;;11.40;99.90;;;;;;5044900;28;20228;-84
2022/09/02 03:19:17;;;;;;;12.67;11.97;;;11.40;99.90;;;;;;5039519;28;20594;-83
2022/09/02 03:21:43;;;;;;;10.70;10.10;;;11.40;99.90;;;;;;5038354;28;20305;-82
2022/09/02 03:24:10;;;;;;;12.97;12.17;;;11.30;99.90;;;;;;5037468;28;20674;-83
2022/09/02 03:26:37;;;;;;;11.60;10.90;;;11.30;99.90;;;;;;5037120;28;20175;-84
2022/09/02 03:29:04;;;;;;;13.43;12.60;;;11.20;99.90;;;;;;5037186;28;20285;-82
2022/09/02 03:31:29;;;;;;;15.63;14.73;;;11.30;99.90;;;;;;5063833;28;20182;-83
2022/09/02 03:33:55;;;;;;;10.77;10.13;;;11.30;99.90;;;;;;5074353;28;20205;-84
2022/09/02 03:36:30;;;;;;;12.47;11.70;;;11.30;99.90;;;;;;5062130;28;20728;-82
2022/09/02 03:38:57;;;;;;;12.03;11.30;;;11.20;99.90;;;;;;5060793;28;20197;-84
2022/09/02 03:41:23;;;;;;;25.60;24.07;;;11.20;99.90;;;;;;5050529;28;20209;-83
2022/09/02 03:43:49;;;;;;;12.13;11.17;;;11.10;99.90;;;;;;5036883;28;20190;-84
2022/09/02 03:46:15;;;;;;;12.30;11.50;;;11.10;99.90;;;;;;5038878;28;20175;-82
2022/09/02 03:48:41;;;;;;;10.57;9.87;;;11.10;99.90;;;;;;5022832;28;20206;-84
2022/09/02 03:51:07;;;;;;;19.17;17.77;;;11.10;99.90;;;;;;5054805;28;20252;-83
2022/09/02 03:53:34;;;;;;;18.97;17.93;;;11.00;99.90;;;;;;5037661;28;20187;-83
2022/09/02 03:56:05;;;;;;;21.20;20.07;;;11.10;99.90;;;;;;5030610;28;20195;-83
2022/09/02 03:58:31;;;;;;;21.33;20.17;;;11.10;99.90;;;;;;5032810;28;20760;-82
2022/09/02 04:00:57;;;;;;;25.60;24.07;;;11.10;99.90;;;;;;5034696;28;20386;-81
2022/09/02 04:03:23;;;;;;;29.93;28.13;;;11.10;99.90;;;;;;5035548;28;20187;-82
2022/09/02 04:05:51;;;;;;;38.33;36.33;;;11.10;99.90;;;;;;5031225;28;20198;-81
2022/09/02 04:08:18;;;;;;;24.13;22.83;;;11.10;99.90;;;;;;5033477;28;20199;-79
2022/09/02 04:10:44;;;;;;;23.93;22.53;;;11.10;99.90;;;;;;5028792;28;20265;-78
2022/09/02 04:13:10;;;;;;;17.13;16.10;;;11.00;99.90;;;;;;5035308;28;20576;-81
2022/09/02 04:15:43;;;;;;;22.80;21.30;;;11.00;99.90;;;;;;5034106;28;20170;-80
2022/09/02 04:21:50;;;;;;;11.80;11.00;;;11.00;99.90;;;;;;5056419;28;20237;-77
2022/09/02 04:24:16;;;;;;;13.33;12.63;;;10.90;99.90;;;;;;5046157;28;20187;-79
2022/09/02 04:26:42;;;;;;;18.73;17.57;;;10.80;99.90;;;;;;5045898;28;20179;-79
2022/09/02 04:29:08;;;;;;;15.33;14.40;;;10.80;99.90;;;;;;5034739;28;20266;-79
2022/09/02 04:31:34;;;;;;;12.83;12.03;;;10.80;99.90;;;;;;5036261;28;20179;-81
2022/09/02 04:34:01;;;;;;;24.60;23.10;;;10.80;99.90;;;;;;5035684;28;20678;-80
2022/09/02 04:36:27;;;;;;;20.00;18.83;;;10.90;99.90;;;;;;5034214;28;20599;-81
2022/09/02 04:38:54;;;;;;;21.37;20.10;;;10.90;99.90;;;;;;5033974;28;20678;-80
2022/09/02 04:41:27;;;;;;;17.77;16.77;;;10.80;99.90;;;;;;5035649;28;20207;-78
2022/09/02 04:43:58;;;;;;;12.10;11.37;;;10.80;99.90;;;;;;5050153;28;20269;-79
2022/09/02 04:46:24;;;;;;;13.67;12.77;;;10.80;99.90;;;;;;5035497;28;20175;-80
2022/09/02 04:48:50;;;;;;;19.10;18.00;;;10.90;99.90;;;;;;5039473;28;20228;-78
2022/09/02 04:51:22;;;;;;;25.87;24.57;;;10.90;99.90;;;;;;5038828;28;20175;-80
2022/09/02 04:53:49;;;;;;;18.30;17.30;;;10.80;99.90;;;;;;5035852;28;20179;-80
2022/09/02 04:56:19;;;;;;;16.27;14.97;;;10.80;99.90;;;;;;5040415;28;20187;-80
2022/09/02 04:58:45;;;;;;;16.13;15.10;;;10.80;99.90;;;;;;5054026;28;20308;-79
2022/09/02 05:01:14;;;;;;;14.50;13.57;;;10.80;99.90;;;;;;5063800;28;20233;-80
2022/09/02 05:03:43;;;;;;;22.23;20.33;;;10.80;99.90;;;;;;5055988;28;20586;-80
2022/09/02 05:06:12;;;;;;;19.00;17.90;;;10.90;99.90;;;;;;5056783;28;20562;-80
2022/09/02 05:08:38;;;;;;;9.57;8.77;;;11.00;99.90;;;;;;5056684;28;20202;-79
2022/09/02 05:11:12;;;;;;;10.47;9.47;;;11.00;99.90;;;;;;5052972;28;20179;-80
2022/09/02 05:13:39;;;;;;;9.33;8.80;;;11.10;99.90;;;;;;5035368;28;20285;-80
2022/09/02 05:16:05;;;;;;;10.30;9.47;;;11.30;99.90;;;;;;5034762;28;20185;-80
2022/09/02 05:18:31;;;;;;;10.87;10.17;;;11.40;99.90;;;;;;5033125;28;20239;-80
2022/09/02 05:20:57;;;;;;;12.70;11.90;;;11.50;99.90;;;;;;5033210;28;20735;-80
2022/09/02 05:23:24;;;;;;;13.20;12.30;;;11.70;99.90;;;;;;5031155;28;20183;-80
2022/09/02 05:25:50;;;;;;;11.43;10.77;;;11.80;99.90;;;;;;5032776;28;20265;-80
2022/09/02 05:28:16;;;;;;;11.20;10.60;;;11.90;99.90;;;;;;5031704;28;20198;-80
2022/09/02 05:30:42;;;;;;;12.37;11.37;;;11.90;99.90;;;;;;5033396;28;20186;-81
2022/09/02 05:33:09;;;;;;;10.60;9.83;;;12.10;99.90;;;;;;5039716;28;20674;-80
2022/09/02 05:35:42;;;;;;;17.40;16.13;;;12.20;99.90;;;;;;5046848;28;20193;-80
2022/09/02 05:38:09;;;;;;;12.40;11.57;;;12.50;99.90;;;;;;5035894;28;20237;-80
2022/09/02 05:40:38;;;;;;;62.37;59.27;;;12.60;99.90;;;;;;5043437;28;20677;-80
2022/09/02 05:43:04;;;;;;;49.43;46.83;;;12.80;99.90;;;;;;5056231;28;20215;-81
2022/09/02 05:45:30;;;;;;;25.40;24.13;;;13.10;99.90;;;;;;5057498;28;20295;-81
2022/09/02 05:47:56;;;;;;;9.67;8.87;;;13.50;99.90;;;;;;5060488;28;20213;-81
2022/09/02 05:50:22;;;;;;;15.43;14.43;;;13.90;99.90;;;;;;5033216;28;20267;-81
2022/09/02 05:52:51;;;;;;;24.33;22.73;;;14.40;99.90;;;;;;5036965;28;20660;-81
2022/09/02 05:55:17;;;;;;;20.47;19.33;;;14.80;99.90;;;;;;5037336;28;20183;-80
2022/09/02 05:57:44;;;;;;;68.43;65.13;;;15.30;99.90;;;;;;5046016;28;20224;-80
2022/09/02 06:00:11;;;;;;;21.47;20.23;;;15.80;99.90;;;;;;5057300;28;20267;-80
2022/09/02 06:02:37;;;;;;;9.30;6.40;;;16.20;99.90;;;;;;5055074;28;20242;-79
2022/09/02 06:05:03;;;;;;;12.13;11.53;;;16.60;99.90;;;;;;5034878;28;20261;-80
2022/09/02 06:07:29;;;;;;;11.23;10.43;;;17.00;99.90;;;;;;5034339;28;20203;-79
2022/09/02 06:09:55;;;;;;;32.20;30.53;;;17.30;99.90;;;;;;5033207;28;20229;-80
2022/09/02 06:12:21;;;;;;;78.07;73.67;;;17.60;99.90;;;;;;5032322;28;20179;-77
2022/09/02 06:14:48;;;;;;;97.90;93.10;;;17.80;99.90;;;;;;5029817;28;20182;-76
2022/09/02 06:17:14;;;;;;;78.23;74.47;;;18.10;99.90;;;;;;5028753;28;20701;-76
2022/09/02 06:19:41;;;;;;;29.00;26.90;;;18.40;99.90;;;;;;5028515;28;20186;-76
2022/09/02 06:22:07;;;;;;;12.33;11.73;;;18.80;99.90;;;;;;5029128;28;20301;-74
2022/09/02 06:24:33;;;;;;;9.60;8.80;;;19.00;99.90;;;;;;5040157;28;20174;-77
2022/09/02 06:27:00;;;;;;;6.50;6.00;;;19.40;99.90;;;;;;5047442;28;20602;-76
2022/09/02 06:29:26;;;;;;;6.13;5.55;;;19.70;99.90;;;;;;5049374;28;20661;-72
2022/09/02 06:31:53;;;;;;;6.90;6.50;;;20.00;99.90;;;;;;5050634;28;20186;-72
2022/09/02 06:34:22;;;;;;;11.93;11.30;;;20.30;99.90;;;;;;5049872;28;20232;-73
2022/09/02 06:36:49;;;;;;;13.67;12.90;;;20.50;99.90;;;;;;5049341;28;20244;-74
2022/09/02 06:39:18;;;;;;;17.48;16.55;;;20.50;99.90;;;;;;5041037;28;20177;-73
2022/09/02 06:41:47;;;;;;;51.35;48.55;;;20.70;99.90;;;;;;5049430;28;20594;-74
2022/09/02 06:44:14;;;;;;;43.38;41.17;;;20.90;99.90;;;;;;5050495;28;20182;-73
2022/09/02 06:46:45;;;;;;;39.33;37.28;;;21.00;99.90;;;;;;5051020;28;20583;-75
2022/09/02 06:49:17;;;;;;;20.77;19.52;;;21.30;99.90;;;;;;5047489;28;20185;-72
2022/09/02 06:51:45;;;;;;;5.82;5.43;;;21.80;99.90;;;;;;5025692;28;20231;-81
2022/09/02 06:54:16;;;;;;;5.80;5.47;;;21.90;99.90;;;;;;5012413;28;20211;-80
2022/09/02 06:56:44;;;;;;;7.45;7.05;;;22.30;99.90;;;;;;5021369;28;20202;-83
2022/09/02 06:59:10;;;;;;;8.00;7.50;;;22.20;99.90;;;;;;5029619;28;20197;-79
2022/09/02 07:01:37;;;;;;;8.13;7.63;;;22.20;99.90;;;;;;5030191;28;20210;-78
2022/09/02 07:06:51;;;;;;;8.68;8.15;;;21.80;99.90;;;;;;5031553;28;20191;-77
2022/09/02 07:09:20;;;;;;;6.18;5.88;;;21.30;99.90;;;;;;5031657;28;20183;-79
2022/09/02 07:11:48;;;;;;;8.23;7.72;;;21.10;99.90;;;;;;5031481;28;20210;-80
2022/09/02 07:14:16;;;;;;;6.38;5.88;;;21.30;99.90;;;;;;5033040;28;20183;-81
2022/09/02 07:16:48;;;;;;;7.38;6.35;;;21.60;99.90;;;;;;5035545;28;20179;-85
2022/09/02 07:19:15;;;;;;;5.80;5.50;;;21.90;99.90;;;;;;5035693;28;20274;-81
2022/09/02 07:21:41;;;;;;;6.03;5.70;;;22.20;99.90;;;;;;5033671;28;20202;-81
2022/09/02 07:24:09;;;;;;;6.90;6.50;;;21.90;99.90;;;;;;5035435;28;20191;-81
2022/09/02 07:26:35;;;;;;;9.35;7.28;;;22.30;99.90;;;;;;5035496;28;20253;-80
2022/09/02 07:29:01;;;;;;;6.22;5.82;;;21.80;99.90;;;;;;5034541;28;20205;-82
2022/09/02 07:31:28;;;;;;;6.93;6.43;;;21.50;99.90;;;;;;5036979;28;20183;-80
2022/09/02 07:33:58;;;;;;;11.07;10.23;;;21.40;99.90;;;;;;5019496;28;20187;-82
2022/09/02 07:36:25;;;;;;;31.52;29.80;;;21.00;99.90;;;;;;5035708;28;20182;-80
2022/09/02 07:38:52;;;;;;;26.08;24.88;;;20.90;99.90;;;;;;5030158;28;20715;-81
2022/09/02 07:41:19;;;;;;;17.83;17.03;;;21.10;99.90;;;;;;5035980;28;20218;-82
2022/09/02 07:43:45;;;;;;;23.38;21.98;;;21.10;99.90;;;;;;5046003;28;20174;-80
2022/09/02 07:46:12;;;;;;;31.37;29.73;;;20.90;99.90;;;;;;5028457;28;20194;-82
2022/09/02 07:48:39;;;;;;;18.98;17.92;;;21.00;99.90;;;;;;5034902;28;20195;-80
2022/09/02 07:51:06;;;;;;;16.07;15.27;;;21.20;99.90;;;;;;5037821;28;20183;-81
2022/09/02 07:53:34;;;;;;;14.85;13.82;;;21.20;99.90;;;;;;5035296;28;20190;-82
2022/09/02 07:56:00;;;;;;;13.55;12.95;;;21.40;99.90;;;;;;5053465;28;20293;-81
2022/09/02 07:58:27;;;;;;;12.82;12.05;;;21.50;99.90;;;;;;5044891;28;20250;-81
2022/09/02 08:00:56;;;;;;;13.60;12.83;;;21.20;99.90;;;;;;5042164;28;20218;-81
2022/09/02 08:03:25;;;;;;;11.50;11.00;;;21.20;99.90;;;;;;5053981;28;20205;-80
2022/09/02 08:05:51;;;;;;;14.07;13.35;;;21.40;99.90;;;;;;5052918;28;20179;-81
2022/09/02 08:08:21;;;;;;;9.20;8.70;;;21.40;99.90;;;;;;5044616;28;20199;-82
2022/09/02 08:10:50;;;;;;;5.75;5.15;;;21.90;99.90;;;;;;5053108;28;20178;-81
2022/09/02 08:13:16;;;;;;;5.78;5.47;;;22.40;99.90;;;;;;5059251;28;20217;-81
2022/09/02 08:15:44;;;;;;;9.10;8.70;;;22.50;99.90;;;;;;5042599;28;20238;-81
2022/09/02 08:18:10;;;;;;;8.93;7.93;;;22.50;99.90;;;;;;5014350;28;20294;-81
2022/09/02 08:20:36;;;;;;;9.80;9.23;;;22.30;99.90;;;;;;5013575;28;20243;-80
2022/09/02 08:23:05;;;;;;;9.20;8.80;;;22.30;99.90;;;;;;5030609;28;20206;-82
2022/09/02 08:25:33;;;;;;;9.10;8.50;;;22.20;99.90;;;;;;5044494;28;20178;-80
2022/09/02 08:27:59;;;;;;;7.78;7.38;;;22.20;99.90;;;;;;5052895;28;20576;-81
2022/09/02 08:30:25;;;;;;;7.55;6.93;;;22.20;99.90;;;;;;5053426;28;20642;-82
2022/09/02 08:32:50;;;;;;;7.55;7.00;;;22.20;99.90;;;;;;5054722;28;20181;-80
2022/09/02 08:35:17;;;;;;;8.65;7.32;;;22.20;99.90;;;;;;5055163;28;20189;-79
2022/09/02 08:37:43;;;;;;;7.32;6.68;;;22.50;99.90;;;;;;5053076;28;20580;-82
2022/09/02 08:40:21;;;;;;;8.20;7.80;;;22.80;99.70;;;;;;5049704;28;20190;-79
2022/09/02 08:42:54;;;;;;;5.93;5.63;;;23.10;99.40;;;;;;5043214;28;20175;-79
2022/09/02 08:45:24;;;;;;;6.18;5.88;;;23.20;99.10;;;;;;5034272;28;20191;-80
2022/09/02 08:48:01;;;;;;;6.47;5.97;;;23.10;98.90;;;;;;5033506;28;20688;-79
2022/09/02 08:50:29;;;;;;;5.38;5.18;;;22.80;98.50;;;;;;5034092;28;20658;-80
2022/09/02 08:53:14;;;;;;;6.47;6.07;;;22.80;98.30;;;;;;5054502;28;20185;-77
2022/09/02 08:55:49;;;;;;;5.65;5.35;;;22.80;97.50;;;;;;5055050;28;20654;-79
2022/09/02 08:58:21;;;;;;;5.43;5.15;;;23.00;97.30;;;;;;5053989;28;20248;-79
2022/09/02 09:01:03;;;;;;;5.75;5.35;;;23.30;96.50;;;;;;5053880;28;20240;-82
2022/09/02 09:04:17;;;;;;;6.40;5.90;;;23.20;96.50;;;;;;5055466;28;20537;-80
2022/09/02 09:06:58;;;;;;;4.43;4.13;;;23.50;96.30;;;;;;5047025;28;20171;-78
2022/09/02 09:10:01;;;;;;;3.20;2.92;;;24.20;94.80;;;;;;5033053;28;20274;-79
2022/09/02 09:12:55;;;;;;;5.68;3.75;;;24.30;94.00;;;;;;5033868;28;20209;-67
2022/09/02 09:15:32;;;;;;;4.97;3.30;;;24.30;92.50;;;;;;5025706;28;20188;-71
2022/09/02 09:18:04;;;;;;;6.72;6.32;;;24.80;92.20;;;;;;5010689;28;20214;-72
2022/09/02 09:20:37;;;;;;;6.70;6.30;;;24.80;90.20;;;;;;5040034;28;20294;-70
2022/09/02 09:23:29;;;;;;;6.93;6.63;;;24.10;90.30;;;;;;5052162;28;20213;-78
2022/09/02 09:26:07;;;;;;;6.78;6.28;;;23.80;90.60;;;;;;5069106;28;20178;-77
2022/09/02 09:28:42;;;;;;;6.07;5.78;;;23.70;91.00;;;;;;5050772;28;20669;-78
2022/09/02 09:31:20;;;;;;;7.18;6.72;;;23.70;90.50;;;;;;5060026;28;20208;-76
2022/09/02 09:34:07;;;;;;;6.38;6.10;;;23.80;89.40;;;;;;5056472;28;20182;-79
2022/09/02 09:36:41;;;;;;;7.68;7.38;;;24.10;88.90;;;;;;5036515;28;20560;-79
2022/09/02 09:39:30;;;;;;;8.65;8.35;;;24.30;88.90;;;;;;5039434;28;20202;-78
2022/09/02 09:42:03;;;;;;;9.10;8.70;;;24.30;87.20;;;;;;5039910;28;20233;-79
2022/09/02 09:44:36;;;;;;;10.23;9.73;;;24.30;86.90;;;;;;5038588;28;20175;-77
2022/09/02 09:47:07;;;;;;;9.75;9.35;;;24.30;85.50;;;;;;5037399;28;20189;-77
2022/09/02 09:49:33;;;;;;;9.73;9.23;;;24.50;85.10;;;;;;5041972;28;20187;-76
2022/09/02 09:51:59;;;;;;;20.77;19.73;;;25.20;84.30;;;;;;5042110;28;20190;-79
2022/09/02 09:54:26;;;;;;;20.27;19.38;;;26.30;81.50;;;;;;5038177;28;20191;-80
2022/09/02 09:56:54;;;;;;;21.52;20.45;;;26.60;78.50;;;;;;5037628;28;20175;-77
2022/09/02 09:59:41;;;;;;;6.32;5.93;;;27.10;76.80;;;;;;5069892;22;20897;-80
2022/09/02 10:02:34;;;;;;;4.65;4.35;;;26.70;73.50;;;;;;5053326;28;20232;-81
2022/09/02 10:05:27;;;;;;;4.78;4.57;;;26.30;72.70;;;;;;5036317;28;20203;-80
2022/09/02 10:07:56;;;;;;;4.40;4.25;;;25.60;74.90;;;;;;5053924;28;20240;-81
2022/09/02 10:10:24;;;;;;;3.97;3.88;;;25.90;73.20;;;;;;5066287;28;20178;-80
2022/09/02 10:12:53;;;;;;;4.07;3.88;;;25.90;72.80;;;;;;5074163;28;20176;-81
2022/09/02 10:15:41;;;;;;;3.55;3.45;;;26.10;71.30;;;;;;5056288;28;20179;-80
2022/09/02 10:18:37;;;;;;;3.72;3.60;;;26.30;69.80;;;;;;5046529;28;20252;-78
2022/09/02 10:21:21;;;;;;;5.88;4.20;;;26.40;68.80;;;;;;5032987;28;20565;-78
2022/09/02 10:24:03;;;;;;;4.03;3.85;;;26.20;67.60;;;;;;5031216;28;20186;-78
2022/09/02 10:26:53;;;;;;;6.65;6.25;;;26.80;67.70;;;;;;5032750;28;20828;-79
2022/09/02 10:29:30;;;;;;;6.25;6.05;;;27.40;65.20;;;;;;5031721;28;20225;-76
2022/09/02 10:32:05;;;;;;;7.32;6.93;;;27.10;64.80;;;;;;5031629;28;20198;-75
2022/09/02 10:34:54;;;;;;;6.85;6.45;;;26.60;68.50;;;;;;5032956;28;20193;-84
2022/09/02 10:37:23;;;;;;;6.18;5.75;;;26.60;67.80;;;;;;5031317;28;20285;-74
2022/09/02 10:39:49;;;;;;;6.95;6.45;;;26.70;66.90;;;;;;5031626;28;20248;-75
2022/09/02 10:42:18;;;;;;;6.35;5.93;;;27.00;65.40;;;;;;5026092;28;20770;-73
2022/09/02 10:44:53;;;;;;;5.35;4.95;;;27.00;65.40;;;;;;5015595;28;20665;-75
2022/09/02 10:47:37;;;;;;;4.65;4.45;;;27.50;65.60;;;;;;5008568;28;20317;-73
2022/09/02 10:50:06;;;;;;;5.63;5.22;;;26.90;62.90;;;;;;5046929;28;20167;-84
2022/09/02 10:52:33;;;;;;;6.25;5.95;;;26.70;62.40;;;;;;5040934;28;20201;-83
2022/09/02 10:55:18;;;;;;;5.05;4.63;;;27.00;61.90;;;;;;5041316;28;20246;-83
2022/09/02 10:57:53;;;;;;;5.10;4.90;;;26.30;63.50;;;;;;5039197;28;20226;-81
2022/09/02 11:00:21;;;;;;;5.43;5.22;;;26.30;62.60;;;;;;5048091;28;20261;-83
2022/09/02 11:03:02;;;;;;;6.88;6.22;;;26.20;62.00;;;;;;5028415;28;20277;-81
2022/09/02 11:05:46;;;;;;;6.43;5.93;;;26.20;61.60;;;;;;5019277;28;20183;-87
2022/09/02 11:08:24;;;;;;;4.60;4.40;;;26.40;61.30;;;;;;5059403;28;20194;-81
2022/09/02 11:11:20;;;;;;;5.25;4.85;;;27.00;59.30;;;;;;5034653;28;20187;-82
2022/09/02 11:13:52;;;;;;;6.57;6.18;;;27.50;59.40;;;;;;4999319;28;20211;-81
2022/09/02 11:16:35;;;;;;;6.72;6.32;;;27.80;57.60;;;;;;5044551;28;20535;-80
2022/09/02 11:19:24;;;;;;;6.90;6.60;;;27.80;57.50;;;;;;5042301;28;20199;-79
2022/09/02 11:22:18;;;;;;;8.27;7.93;;;27.30;57.40;;;;;;5037781;28;20214;-77
2022/09/02 11:24:50;;;;;;;6.78;6.47;;;27.50;57.00;;;;;;5045178;28;20599;-76
2022/09/02 11:27:22;;;;;;;6.28;5.97;;;28.40;56.80;;;;;;5033466;28;20183;-77
2022/09/02 11:30:00;;;;;;;7.32;7.03;;;28.90;54.10;;;;;;5032744;28;20245;-78
2022/09/02 11:33:01;;;;;;;7.20;6.65;;;28.70;53.40;;;;;;5032662;28;20546;-77
2022/09/02 11:35:35;;;;;;;5.97;5.65;;;28.30;54.40;;;;;;5022380;28;20741;-77
2022/09/02 11:38:04;;;;;;;7.28;6.68;;;28.00;54.20;;;;;;5040322;28;20197;-76
2022/09/02 11:41:00;;;;;;;5.22;5.03;;;28.40;53.80;;;;;;5038039;28;20229;-76
2022/09/02 11:43:29;;;;;;;7.82;7.47;;;28.50;53.70;;;;;;5053575;28;20175;-79
2022/09/02 11:46:53;;;;;;;9.18;8.68;;;29.20;52.80;;;;;;5053481;28;20206;-71
2022/09/02 11:49:37;;;;;;;6.50;6.18;;;29.60;52.30;;;;;;5020228;28;20207;-81
2022/09/02 11:52:15;;;;;;;6.43;6.13;;;28.90;53.30;;;;;;5016137;28;20206;-82
2022/09/02 11:54:46;;;;;;;8.25;7.75;;;29.00;51.90;;;;;;5046219;28;20194;-82
2022/09/02 11:57:22;;;;;;;9.00;8.63;;;29.00;52.40;;;;;;5043467;28;20183;-83
2022/09/02 11:59:51;;;;;;;9.75;9.32;;;29.50;51.90;;;;;;5039593;28;20197;-83
2022/09/02 12:02:34;;;;;;;11.02;10.52;;;29.30;51.60;;;;;;5038736;28;20569;-83
2022/09/02 12:05:30;;;;;;;18.50;17.65;;;29.90;50.70;;;;;;5043654;28;20190;-82
2022/09/02 12:08:04;;;;;;;9.52;9.13;;;29.80;50.10;;;;;;5013150;28;20278;-82
2022/09/02 12:10:36;;;;;;;11.00;10.55;;;29.60;50.50;;;;;;5062213;28;20190;-83
2022/09/02 12:13:03;;;;;;;11.75;11.25;;;29.70;50.00;;;;;;5063152;28;20595;-81
2022/09/02 12:15:29;;;;;;;9.23;8.82;;;29.30;50.10;;;;;;5062711;28;20641;-82
2022/09/02 12:17:55;;;;;;;9.57;9.07;;;29.20;50.70;;;;;;5063149;28;20205;-83
2022/09/02 12:20:41;;;;;;;10.23;9.77;;;29.70;49.70;;;;;;5063316;28;20189;-83
2022/09/02 12:23:09;;;;;;;20.13;19.13;;;30.20;48.80;;;;;;5060009;28;20206;-83
2022/09/02 12:25:59;;;;;;;47.80;45.50;;;30.80;48.20;;;;;;5044565;28;20171;-83
2022/09/02 12:28:29;;;;;;;73.10;69.65;;;31.40;47.30;;;;;;5042850;28;20270;-82
2022/09/02 12:30:55;;;;;;;48.97;46.58;;;31.10;47.00;;;;;;5044376;28;20536;-83
2022/09/02 12:33:31;;;;;;;39.15;37.33;;;30.40;48.00;;;;;;5044569;28;20179;-81
2022/09/02 12:35:57;;;;;;;14.55;13.85;;;29.80;48.50;;;;;;5044560;28;20213;-82
2022/09/02 12:38:23;;;;;;;13.43;12.85;;;29.10;49.90;;;;;;5048038;28;20197;-82
2022/09/02 12:41:03;;;;;;;15.63;14.95;;;29.20;49.40;;;;;;5075446;28;20214;-82
2022/09/02 12:43:45;;;;;;;11.82;11.32;;;29.70;49.40;;;;;;5068189;28;20178;-82
2022/09/02 12:46:31;;;;;;;33.53;31.92;;;30.30;48.90;;;;;;5060480;28;20211;-83
2022/09/02 12:49:04;;;;;;;50.50;48.05;;;31.60;47.20;;;;;;5059303;28;20721;-82
2022/09/02 12:51:56;;;;;;;54.72;52.08;;;31.60;46.70;;;;;;5061699;28;20253;-82
2022/09/02 12:54:46;;;;;;;74.20;70.68;;;31.60;46.80;;;;;;5059835;28;20213;-83
2022/09/02 12:57:15;;;;;;;71.53;68.18;;;32.50;46.50;;;;;;5060657;28;20178;-82
2022/09/02 12:59:42;;;;;;;92.95;88.63;;;31.60;46.80;;;;;;5060790;28;20207;-82